createdAt,value
2018-07-15T00:00:53.276Z,45.00
2018-07-15T00:03:21.887Z,45.40
2018-07-15T00:05:50.566Z,45.10
2018-07-15T00:08:19.186Z,45.80
2018-07-15T00:10:47.883Z,45.90
2018-07-15T00:13:16.512Z,46.10
2018-07-15T00:15:45.390Z,46.90
2018-07-15T00:18:14.108Z,47.00
2018-07-15T00:20:42.744Z,47.50
2018-07-15T00:23:11.429Z,47.40
2018-07-15T00:25:40.013Z,47.40
2018-07-15T00:28:08.639Z,47.30
2018-07-15T00:30:37.310Z,47.40
2018-07-15T00:33:05.919Z,47.30
2018-07-15T00:35:34.535Z,47.40
2018-07-15T00:38:03.131Z,47.00
2018-07-15T00:40:31.798Z,47.20
2018-07-15T00:43:00.423Z,46.60
2018-07-15T00:45:29.067Z,46.60
2018-07-15T00:47:57.707Z,46.70
2018-07-15T00:50:26.310Z,46.80
2018-07-15T00:52:54.967Z,47.00
2018-07-15T00:55:23.677Z,47.20
2018-07-15T00:57:52.220Z,47.20
2018-07-15T01:00:26.002Z,47.40
2018-07-15T01:02:54.571Z,47.70
2018-07-15T01:05:23.150Z,47.30
2018-07-15T01:07:51.751Z,47.60
2018-07-15T01:10:20.376Z,47.80
2018-07-15T01:12:49.048Z,48.00
2018-07-15T01:15:17.660Z,47.90
2018-07-15T01:17:46.271Z,47.50
2018-07-15T01:20:15.012Z,47.50
2018-07-15T01:22:43.635Z,47.80
2018-07-15T01:25:12.254Z,47.80
2018-07-15T01:27:40.868Z,48.00
2018-07-15T01:30:09.557Z,48.00
2018-07-15T01:32:38.171Z,48.20
2018-07-15T01:35:06.750Z,48.00
2018-07-15T01:37:35.380Z,48.90
2018-07-15T01:40:04.008Z,49.50
2018-07-15T01:42:32.577Z,49.80
2018-07-15T01:45:01.190Z,50.30
2018-07-15T01:47:29.809Z,50.10
2018-07-15T01:49:58.403Z,50.00
2018-07-15T01:52:27.007Z,50.00
2018-07-15T01:54:55.601Z,50.20
2018-07-15T01:57:24.188Z,50.10
2018-07-15T01:59:52.813Z,50.20
2018-07-15T02:02:21.411Z,49.80
2018-07-15T02:04:50.035Z,49.80
2018-07-15T02:07:18.631Z,49.70
2018-07-15T02:09:47.252Z,49.70
2018-07-15T02:12:15.878Z,49.10
2018-07-15T02:14:44.532Z,48.70
2018-07-15T02:17:13.183Z,48.50
2018-07-15T02:19:41.907Z,48.20
2018-07-15T02:22:10.531Z,47.70
2018-07-15T02:24:39.139Z,47.60
2018-07-15T02:27:07.949Z,47.60
2018-07-15T02:29:36.558Z,47.40
2018-07-15T02:32:05.196Z,47.30
2018-07-15T02:34:33.756Z,47.00
2018-07-15T02:37:02.350Z,47.20
2018-07-15T02:39:30.928Z,47.20
2018-07-15T02:41:59.600Z,47.40
2018-07-15T02:44:28.199Z,47.30
2018-07-15T02:46:56.813Z,47.60
2018-07-15T02:49:25.431Z,47.60
2018-07-15T02:51:54.027Z,47.30
2018-07-15T02:54:22.647Z,47.30
2018-07-15T02:56:51.257Z,47.40
2018-07-15T02:59:19.847Z,48.00
2018-07-15T03:01:48.451Z,48.20
2018-07-15T03:04:17.055Z,48.20
2018-07-15T03:06:45.639Z,48.10
2018-07-15T03:09:14.221Z,47.90
2018-07-15T03:11:42.827Z,48.00
2018-07-15T03:14:11.450Z,48.10
2018-07-15T03:16:40.026Z,48.00
2018-07-15T03:19:08.691Z,47.40
2018-07-15T03:21:37.299Z,47.60
2018-07-15T03:24:05.958Z,47.90
2018-07-15T03:26:34.572Z,48.00
2018-07-15T03:29:03.203Z,48.00
2018-07-15T03:31:31.844Z,48.10
2018-07-15T03:34:00.528Z,48.50
2018-07-15T03:36:29.071Z,48.60
2018-07-15T03:38:57.643Z,48.50
2018-07-15T03:41:26.235Z,48.50
2018-07-15T03:43:54.837Z,48.00
2018-07-15T03:46:23.397Z,47.70
2018-07-15T03:48:51.995Z,47.80
2018-07-15T03:51:20.585Z,48.00
2018-07-15T03:53:49.183Z,48.30
2018-07-15T03:56:17.836Z,48.70
2018-07-15T03:58:46.408Z,48.10
2018-07-15T04:01:15.019Z,48.30
2018-07-15T04:03:43.629Z,48.00
2018-07-15T04:06:12.267Z,48.00
2018-07-15T04:08:41.026Z,47.40
2018-07-15T04:11:09.603Z,47.60
2018-07-15T04:13:38.195Z,47.50
2018-07-15T04:16:06.801Z,47.70
2018-07-15T04:18:35.400Z,48.00
2018-07-15T04:21:03.989Z,47.90
2018-07-15T04:23:32.597Z,48.00
2018-07-15T04:26:01.192Z,48.20
2018-07-15T04:28:29.791Z,48.30
2018-07-15T04:30:58.391Z,47.90
2018-07-15T04:33:27.034Z,47.80
2018-07-15T04:35:55.649Z,48.00
2018-07-15T04:38:24.241Z,48.30
2018-07-15T04:40:52.857Z,48.50
2018-07-15T04:43:21.457Z,48.50
2018-07-15T04:45:50.071Z,48.60
2018-07-15T04:48:18.685Z,48.40
2018-07-15T04:50:47.305Z,48.70
2018-07-15T04:53:15.893Z,48.80
2018-07-15T04:55:44.547Z,48.60
2018-07-15T04:58:13.129Z,48.90
2018-07-15T05:00:41.717Z,48.60
2018-07-15T05:03:10.257Z,48.50
2018-07-15T05:05:38.905Z,48.40
2018-07-15T05:08:07.505Z,48.60
2018-07-15T05:10:36.075Z,48.00
2018-07-15T05:13:04.728Z,47.70
2018-07-15T05:15:33.345Z,47.60
2018-07-15T05:18:01.951Z,47.00
2018-07-15T05:20:30.571Z,46.60
2018-07-15T05:22:59.199Z,44.70
2018-07-15T05:25:27.819Z,43.60
2018-07-15T05:27:56.421Z,42.30
2018-07-15T05:30:25.119Z,41.80
2018-07-15T05:32:53.711Z,40.00
2018-07-15T05:35:22.277Z,38.00
2018-07-15T05:37:50.865Z,36.80
2018-07-15T05:40:19.494Z,35.70
2018-07-15T05:42:48.235Z,34.30
2018-07-15T05:45:16.935Z,34.00
2018-07-15T05:47:45.539Z,33.20
2018-07-15T05:50:14.126Z,34.10
2018-07-15T05:52:42.720Z,35.20
2018-07-15T05:55:11.295Z,36.70
2018-07-15T05:57:39.948Z,37.40
2018-07-15T06:00:08.577Z,36.60
2018-07-15T06:02:37.180Z,35.20
2018-07-15T06:05:05.773Z,34.20
2018-07-15T06:07:34.345Z,33.60
2018-07-15T06:10:02.934Z,33.70
2018-07-15T06:12:31.521Z,35.40
2018-07-15T06:15:00.145Z,35.70
2018-07-15T06:17:28.748Z,35.80
2018-07-15T06:19:57.338Z,34.70
2018-07-15T06:22:25.949Z,33.90
2018-07-15T06:24:54.533Z,33.50
2018-07-15T06:27:23.134Z,33.30
2018-07-15T06:29:51.719Z,32.30
2018-07-15T06:32:20.305Z,31.50
2018-07-15T06:34:48.887Z,31.70
2018-07-15T06:37:17.469Z,31.00
2018-07-15T06:39:46.062Z,30.30
2018-07-15T06:42:14.666Z,31.50
2018-07-15T06:44:43.281Z,32.20
2018-07-15T06:47:11.859Z,32.80
2018-07-15T06:49:40.479Z,33.10
2018-07-15T06:52:09.115Z,33.90
2018-07-15T06:54:37.703Z,33.50
2018-07-15T06:57:06.336Z,33.70
2018-07-15T06:59:35.007Z,33.90
2018-07-15T07:02:03.647Z,32.90
2018-07-15T07:04:32.254Z,33.20
2018-07-15T07:07:01.004Z,32.70
2018-07-15T07:09:29.591Z,32.10
2018-07-15T07:11:58.169Z,31.60
2018-07-15T07:14:26.776Z,30.60
2018-07-15T07:16:55.414Z,29.90
2018-07-15T07:19:24.037Z,29.40
2018-07-15T07:21:52.882Z,28.80
2018-07-15T07:24:21.511Z,28.30
2018-07-15T07:26:50.129Z,27.30
2018-07-15T07:29:18.819Z,27.70
2018-07-15T07:31:47.426Z,27.80
2018-07-15T07:34:16.034Z,26.80
2018-07-15T07:36:44.622Z,26.80
2018-07-15T07:39:13.308Z,27.20
2018-07-15T07:41:41.976Z,26.30
2018-07-15T07:44:10.563Z,27.00
2018-07-15T07:46:39.213Z,26.50
2018-07-15T07:49:07.856Z,25.70
2018-07-15T07:51:36.473Z,25.70
2018-07-15T07:54:05.185Z,24.70
2018-07-15T07:56:33.785Z,24.20
2018-07-15T07:59:02.415Z,24.60
2018-07-15T08:01:31.001Z,23.00
2018-07-15T08:03:59.595Z,22.90
2018-07-15T08:06:28.206Z,23.00
2018-07-15T08:08:56.795Z,23.40
2018-07-15T08:11:25.437Z,22.70
2018-07-15T08:13:54.065Z,22.30
2018-07-15T08:16:22.700Z,22.20
2018-07-15T08:18:51.455Z,22.10
2018-07-15T08:21:20.076Z,21.70
2018-07-15T08:23:48.670Z,21.50
2018-07-15T08:26:17.446Z,22.20
2018-07-15T08:28:46.083Z,21.50
2018-07-15T08:31:16.321Z,21.70
2018-07-15T08:33:44.965Z,20.90
2018-07-15T08:36:13.732Z,20.40
2018-07-15T08:38:42.608Z,19.70
2018-07-15T08:41:11.287Z,20.00
2018-07-15T08:43:39.921Z,20.20
2018-07-15T08:46:08.632Z,21.00
2018-07-15T08:48:37.218Z,21.10
2018-07-15T08:51:06.127Z,21.00
2018-07-15T08:53:34.801Z,20.50
2018-07-15T08:56:03.492Z,21.20
2018-07-15T08:58:32.117Z,21.20
2018-07-15T09:01:00.748Z,20.90
2018-07-15T09:03:29.536Z,20.90
2018-07-15T09:05:58.027Z,20.60
2018-07-15T09:08:26.638Z,20.50
2018-07-15T09:10:55.285Z,20.50
2018-07-15T09:13:23.939Z,20.00
2018-07-15T09:15:52.560Z,19.90
2018-07-15T09:18:21.248Z,19.40
2018-07-15T09:20:49.901Z,19.00
2018-07-15T09:23:18.534Z,19.40
2018-07-15T09:25:47.119Z,19.10
2018-07-15T09:28:15.760Z,19.00
2018-07-15T09:30:44.406Z,18.20
2018-07-15T09:33:12.997Z,18.00
2018-07-15T09:35:41.758Z,18.10
2018-07-15T09:38:10.237Z,18.10
2018-07-15T09:40:38.939Z,18.20
2018-07-15T09:43:07.614Z,19.00
2018-07-15T09:45:36.221Z,19.60
2018-07-15T09:48:04.862Z,19.00
2018-07-15T09:50:33.537Z,19.10
2018-07-15T09:53:02.235Z,18.40
2018-07-15T09:55:30.869Z,19.00
2018-07-15T09:57:59.556Z,19.50
2018-07-15T10:00:33.223Z,19.70
2018-07-15T10:03:01.872Z,19.60
2018-07-15T10:05:30.469Z,19.40
2018-07-15T10:07:59.149Z,18.60
2018-07-15T10:10:27.833Z,18.70
2018-07-15T10:12:56.470Z,18.60
2018-07-15T10:15:25.158Z,19.30
2018-07-15T10:17:53.824Z,19.10
2018-07-15T10:20:22.487Z,19.90
2018-07-15T10:22:51.162Z,20.70
2018-07-15T10:25:19.761Z,20.20
2018-07-15T10:27:48.452Z,21.50
2018-07-15T10:30:17.080Z,21.20
2018-07-15T10:32:45.685Z,21.40
2018-07-15T10:35:14.330Z,21.50
2018-07-15T10:37:43.024Z,21.70
2018-07-15T10:40:11.692Z,21.20
2018-07-15T10:42:40.361Z,21.00
2018-07-15T10:45:08.991Z,21.30
2018-07-15T10:47:37.577Z,22.50
2018-07-15T10:50:06.212Z,21.20
2018-07-15T10:52:34.849Z,21.10
2018-07-15T10:55:03.501Z,20.80
2018-07-15T10:57:32.183Z,20.40
2018-07-15T11:00:00.832Z,20.50
2018-07-15T11:02:29.475Z,20.50
2018-07-15T11:04:58.199Z,20.20
2018-07-15T11:07:26.826Z,19.60
2018-07-15T11:09:55.463Z,19.40
2018-07-15T11:12:24.128Z,18.70
2018-07-15T11:14:52.823Z,19.90
2018-07-15T11:17:21.433Z,19.90
2018-07-15T11:19:50.076Z,20.40
2018-07-15T11:22:18.775Z,21.10
2018-07-15T11:24:47.452Z,20.80
2018-07-15T11:27:16.057Z,20.60
2018-07-15T11:29:44.660Z,22.10
2018-07-15T11:32:13.306Z,20.70
2018-07-15T11:34:41.977Z,20.40
2018-07-15T11:37:10.700Z,21.10
2018-07-15T11:39:39.370Z,21.50
2018-07-15T11:42:08.087Z,21.40
2018-07-15T11:44:36.715Z,21.80
2018-07-15T11:47:05.543Z,22.20
2018-07-15T11:49:34.193Z,22.30
2018-07-15T11:52:02.883Z,21.10
2018-07-15T11:54:31.537Z,21.30
2018-07-15T11:57:00.190Z,21.50
2018-07-15T11:59:28.837Z,20.70
2018-07-15T12:01:58.441Z,19.70
2018-07-15T12:04:27.192Z,20.10
2018-07-15T12:06:55.854Z,19.40
2018-07-15T12:09:24.605Z,19.00
2018-07-15T12:11:53.289Z,19.60
2018-07-15T12:14:22.117Z,20.20
2018-07-15T12:16:50.719Z,20.50
2018-07-15T12:19:19.373Z,20.50
2018-07-15T12:21:47.988Z,22.10
2018-07-15T12:24:16.578Z,22.90
2018-07-15T12:26:45.211Z,22.80
2018-07-15T12:29:13.935Z,22.40
2018-07-15T12:31:42.608Z,22.30
2018-07-15T12:34:11.271Z,22.00
2018-07-15T12:36:39.939Z,22.40
2018-07-15T12:39:08.940Z,21.40
2018-07-15T12:41:37.733Z,20.90
2018-07-15T12:44:06.401Z,21.00
2018-07-15T12:46:35.011Z,21.10
2018-07-15T12:49:03.788Z,21.20
2018-07-15T12:51:32.464Z,20.10
2018-07-15T12:54:01.177Z,20.00
2018-07-15T12:56:29.768Z,20.50
2018-07-15T12:58:58.492Z,20.70
2018-07-15T13:01:27.193Z,20.50
2018-07-15T13:03:55.810Z,20.20
2018-07-15T13:06:24.406Z,20.70
2018-07-15T13:08:53.040Z,21.70
2018-07-15T13:11:21.666Z,20.10
2018-07-15T13:13:50.311Z,19.90
2018-07-15T13:16:19.129Z,19.20
2018-07-15T13:18:47.742Z,19.30
2018-07-15T13:21:16.391Z,19.50
2018-07-15T13:23:45.000Z,19.10
2018-07-15T13:26:13.630Z,19.10
2018-07-15T13:28:42.277Z,19.50
2018-07-15T13:31:11.030Z,19.60
2018-07-15T13:33:39.685Z,20.10
2018-07-15T13:36:08.382Z,19.90
2018-07-15T13:38:37.736Z,20.10
2018-07-15T13:41:06.457Z,19.90
2018-07-15T13:43:35.063Z,20.40
2018-07-15T13:46:03.689Z,20.60
2018-07-15T13:48:32.308Z,20.80
2018-07-15T13:51:01.015Z,21.00
2018-07-15T13:53:29.589Z,21.50
2018-07-15T13:55:58.239Z,21.80
2018-07-15T13:58:26.823Z,22.00
2018-07-15T14:00:55.418Z,21.60
2018-07-15T14:03:24.135Z,21.10
2018-07-15T14:05:53.374Z,21.10
2018-07-15T14:08:22.067Z,20.80
2018-07-15T14:10:50.747Z,21.10
2018-07-15T14:13:19.548Z,20.40
2018-07-15T14:15:48.202Z,20.90
2018-07-15T14:18:17.401Z,20.20
2018-07-15T14:20:46.077Z,19.80
2018-07-15T14:23:14.720Z,20.10
2018-07-15T14:25:43.429Z,20.30
2018-07-15T14:28:12.058Z,20.50
2018-07-15T14:30:40.781Z,20.70
2018-07-15T14:33:09.466Z,20.80
2018-07-15T14:35:38.058Z,21.20
2018-07-15T14:38:06.877Z,21.20
2018-07-15T14:40:35.549Z,20.60
2018-07-15T14:43:04.252Z,20.90
2018-07-15T14:45:34.082Z,21.30
2018-07-15T14:48:02.814Z,21.60
2018-07-15T14:50:31.381Z,21.80
2018-07-15T14:53:00.655Z,22.10
2018-07-15T14:55:29.318Z,22.10
2018-07-15T14:57:57.899Z,21.80
2018-07-15T15:00:26.749Z,21.90
2018-07-15T15:02:55.370Z,23.10
2018-07-15T15:05:24.098Z,26.00
2018-07-15T15:07:52.828Z,26.80
2018-07-15T15:10:21.600Z,29.00
2018-07-15T15:12:50.328Z,31.50
2018-07-15T15:15:19.102Z,31.30
2018-07-15T15:17:47.715Z,31.50
2018-07-15T15:20:16.456Z,32.70
2018-07-15T15:22:45.104Z,38.40
2018-07-15T15:25:13.844Z,42.70
2018-07-15T15:27:42.490Z,45.50
2018-07-15T15:30:11.315Z,43.00
2018-07-15T15:32:39.983Z,44.50
2018-07-15T15:35:08.624Z,44.90
2018-07-15T15:37:37.376Z,46.80
2018-07-15T15:40:06.106Z,46.10
2018-07-15T15:42:34.906Z,46.50
2018-07-15T15:45:03.693Z,45.40
2018-07-15T15:47:32.966Z,45.60
2018-07-15T15:50:01.658Z,46.60
2018-07-15T15:52:31.560Z,45.20
2018-07-15T15:55:00.226Z,44.60
2018-07-15T15:57:28.986Z,41.60
2018-07-15T15:59:57.660Z,41.00
2018-07-15T16:02:26.496Z,40.20
2018-07-15T16:04:55.291Z,40.10
2018-07-15T16:07:24.047Z,39.50
2018-07-15T16:09:52.684Z,41.70
2018-07-15T16:12:21.376Z,39.30
2018-07-15T16:14:50.243Z,38.00
2018-07-15T16:17:18.990Z,39.30
2018-07-15T16:19:47.649Z,39.60
2018-07-15T16:22:16.306Z,39.80
2018-07-15T16:24:45.086Z,39.60
2018-07-15T16:27:13.762Z,38.90
2018-07-15T16:29:42.597Z,39.40
2018-07-15T16:32:11.363Z,40.50
2018-07-15T16:34:40.078Z,40.60
2018-07-15T16:37:08.810Z,41.50
2018-07-15T16:39:37.493Z,39.60
2018-07-15T16:42:06.228Z,38.80
2018-07-15T16:44:34.866Z,38.00
2018-07-15T16:47:03.600Z,39.50
2018-07-15T16:49:32.359Z,40.00
2018-07-15T16:52:00.980Z,40.40
2018-07-15T16:54:29.643Z,41.70
2018-07-15T16:56:58.326Z,41.80
2018-07-15T16:59:27.117Z,41.90
2018-07-15T17:01:55.952Z,42.70
2018-07-15T17:04:24.831Z,43.30
2018-07-15T17:06:53.642Z,44.50
2018-07-15T17:09:22.348Z,44.90
2018-07-15T17:11:51.255Z,46.30
2018-07-15T17:14:20.011Z,46.60
2018-07-15T17:16:48.568Z,45.20
2018-07-15T17:19:17.148Z,45.80
2018-07-15T17:21:45.860Z,46.10
2018-07-15T17:24:14.475Z,46.40
2018-07-15T17:26:43.102Z,45.50
2018-07-15T17:29:11.750Z,45.50
2018-07-15T17:31:40.526Z,43.30
2018-07-15T17:34:09.156Z,41.50
2018-07-15T17:36:37.794Z,42.80
2018-07-15T17:39:06.726Z,43.40
2018-07-15T17:41:35.394Z,43.80
2018-07-15T17:44:03.983Z,44.20
2018-07-15T17:46:32.684Z,44.50
2018-07-15T17:49:01.381Z,44.80
2018-07-15T17:51:30.031Z,44.90
2018-07-15T17:53:58.626Z,45.50
2018-07-15T17:56:27.311Z,45.90
2018-07-15T17:58:56.114Z,45.40
2018-07-15T18:01:24.824Z,46.00
2018-07-15T18:03:53.519Z,45.70
2018-07-15T18:06:22.138Z,45.80
2018-07-15T18:08:50.798Z,45.90
2018-07-15T18:11:19.441Z,45.80
2018-07-15T18:13:48.054Z,45.40
2018-07-15T18:16:16.765Z,46.30
2018-07-15T18:18:45.290Z,45.00
2018-07-15T18:21:14.103Z,44.50
2018-07-15T18:23:42.738Z,44.30
2018-07-15T18:26:11.418Z,44.10
2018-07-15T18:28:40.128Z,44.40
2018-07-15T18:31:08.763Z,44.20
2018-07-15T18:33:37.682Z,44.80
2018-07-15T18:36:06.831Z,44.50
2018-07-15T18:38:35.818Z,44.50
2018-07-15T18:41:04.566Z,44.40
2018-07-15T18:43:33.275Z,44.40
2018-07-15T18:46:02.226Z,45.10
2018-07-15T18:48:31.020Z,45.10
2018-07-15T18:50:59.682Z,44.30
2018-07-15T18:53:28.482Z,45.50
2018-07-15T18:55:57.050Z,45.50
2018-07-15T18:58:25.716Z,45.90
2018-07-15T19:00:54.466Z,45.00
2018-07-15T19:03:23.176Z,45.80
2018-07-15T19:05:51.832Z,45.90
2018-07-15T19:08:20.366Z,45.00
2018-07-15T19:10:48.994Z,44.60
2018-07-15T19:13:17.587Z,45.40
2018-07-15T19:15:46.198Z,45.30
2018-07-15T19:18:14.982Z,45.00
2018-07-15T19:20:43.518Z,44.90
2018-07-15T19:23:12.185Z,45.10
2018-07-15T19:25:41.349Z,45.60
2018-07-15T19:28:10.164Z,45.60
2018-07-15T19:30:39.583Z,45.70
2018-07-15T19:33:08.262Z,46.10
2018-07-15T19:35:37.974Z,46.10
2018-07-15T19:38:08.135Z,45.30
2018-07-15T19:40:39.132Z,45.30
2018-07-15T19:43:10.542Z,45.60
2018-07-15T19:45:40.198Z,45.50
2018-07-15T19:48:10.256Z,45.40
2018-07-15T19:50:42.468Z,46.40
2018-07-15T19:53:22.287Z,47.00
2018-07-15T19:55:55.162Z,46.80
2018-07-15T19:58:29.048Z,47.10
2018-07-15T20:01:01.598Z,45.40
2018-07-15T20:03:31.868Z,44.40
2018-07-15T20:06:04.608Z,44.30
2018-07-15T20:08:34.046Z,45.30
2018-07-15T20:11:04.208Z,45.20
2018-07-15T20:13:34.930Z,45.00
2018-07-15T20:16:05.332Z,44.90
2018-07-15T20:18:34.966Z,45.20
2018-07-15T20:21:04.928Z,45.40
2018-07-15T20:23:33.687Z,46.00
2018-07-15T20:26:04.392Z,46.20
2018-07-15T20:28:33.098Z,47.00
2018-07-15T20:31:02.473Z,46.50
2018-07-15T20:33:31.215Z,46.50
2018-07-15T20:36:01.329Z,46.70
2018-07-15T20:38:31.303Z,46.80
2018-07-15T20:41:00.053Z,46.90
2018-07-15T20:43:28.779Z,47.10
2018-07-15T20:45:57.384Z,47.30
2018-07-15T20:48:26.089Z,48.40
2018-07-15T20:50:54.767Z,48.00
2018-07-15T20:53:23.508Z,48.40
2018-07-15T20:55:52.227Z,48.90
2018-07-15T20:58:20.944Z,49.00
2018-07-15T21:00:49.512Z,49.40
2018-07-15T21:03:18.122Z,49.70
2018-07-15T21:05:46.733Z,49.60
2018-07-15T21:08:15.291Z,49.90
2018-07-15T21:10:43.926Z,50.20
2018-07-15T21:13:12.589Z,50.30
2018-07-15T21:15:41.152Z,50.30
2018-07-15T21:18:09.987Z,50.20
2018-07-15T21:20:38.574Z,49.90
2018-07-15T21:23:07.208Z,50.30
2018-07-15T21:25:35.820Z,50.30
2018-07-15T21:28:04.443Z,50.30
2018-07-15T21:30:33.066Z,50.30
2018-07-15T21:33:01.651Z,50.20
2018-07-15T21:35:30.232Z,50.30
2018-07-15T21:37:58.846Z,50.40
2018-07-15T21:40:27.378Z,50.40
2018-07-15T21:42:55.955Z,51.20
2018-07-15T21:45:26.202Z,51.70
2018-07-15T21:47:54.782Z,51.60
2018-07-15T21:50:23.338Z,52.10
2018-07-15T21:52:52.184Z,52.10
2018-07-15T21:55:20.970Z,52.20
2018-07-15T21:57:49.670Z,52.60
2018-07-15T22:00:18.303Z,52.90
2018-07-15T22:02:46.975Z,53.30
2018-07-15T22:05:15.510Z,55.60
2018-07-15T22:07:55.058Z,56.10
2018-07-15T22:10:29.384Z,56.10
2018-07-15T22:12:57.932Z,55.80
2018-07-15T22:15:26.572Z,56.50
2018-07-15T22:17:55.156Z,56.20
2018-07-15T22:20:23.698Z,56.10
2018-07-15T22:22:52.292Z,56.40
2018-07-15T22:25:20.901Z,56.50
2018-07-15T22:27:49.474Z,57.00
2018-07-15T22:30:18.074Z,56.60
2018-07-15T22:32:46.610Z,56.70
2018-07-15T22:35:15.278Z,56.60
2018-07-15T22:37:43.797Z,56.30
2018-07-15T22:40:12.394Z,56.50
2018-07-15T22:42:40.984Z,56.30
2018-07-15T22:45:09.548Z,56.20
2018-07-15T22:47:38.110Z,56.10
2018-07-15T22:50:06.976Z,55.90
2018-07-15T22:52:35.565Z,55.90
2018-07-15T22:55:04.222Z,55.60
2018-07-15T22:57:32.856Z,54.80
2018-07-15T23:00:01.459Z,54.90
2018-07-15T23:02:30.028Z,54.80
2018-07-15T23:05:39.710Z,54.80
2018-07-15T23:08:08.721Z,54.80
2018-07-15T23:10:37.482Z,54.80
2018-07-15T23:13:07.167Z,54.70
2018-07-15T23:15:36.225Z,54.70
2018-07-15T23:18:04.886Z,54.30
2018-07-15T23:20:34.192Z,54.60
2018-07-15T23:23:03.677Z,54.60
2018-07-15T23:25:32.673Z,54.50
2018-07-15T23:28:01.795Z,54.30
2018-07-15T23:30:31.158Z,54.10
2018-07-15T23:33:00.102Z,54.10
2018-07-15T23:35:28.731Z,54.10
2018-07-15T23:37:57.361Z,54.30
2018-07-15T23:40:26.229Z,54.10
2018-07-15T23:42:55.494Z,53.70
2018-07-15T23:45:24.855Z,54.00
2018-07-15T23:47:53.776Z,54.00
2018-07-15T23:50:22.468Z,54.20
2018-07-15T23:52:51.073Z,54.20
2018-07-15T23:55:19.699Z,53.80
2018-07-15T23:57:48.456Z,53.90
